createdAt,value
2018-12-26T00:00:14.249Z,22.5
2018-12-26T00:01:03.935Z,22.5
2018-12-26T00:01:53.998Z,22.5
2018-12-26T00:02:44.058Z,22.5
2018-12-26T00:03:34.107Z,22.5
2018-12-26T00:04:24.224Z,22.5
2018-12-26T00:05:13.779Z,22.5
2018-12-26T00:06:04.278Z,22.5
2018-12-26T00:06:54.332Z,22.5
2018-12-26T00:07:43.864Z,22.5
2018-12-26T00:08:34.452Z,22.5
2018-12-26T00:09:24.548Z,22.4
2018-12-26T00:10:14.279Z,22.5
2018-12-26T00:11:04.618Z,22.5
2018-12-26T00:11:54.674Z,22.5
2018-12-26T00:12:44.726Z,22.5
2018-12-26T00:13:34.517Z,22.5
2018-12-26T00:14:24.836Z,22.4
2018-12-26T00:32:35.593Z,22.4
2018-12-26T00:33:25.375Z,22.4
2018-12-26T00:34:15.533Z,22.5
2018-12-26T00:35:05.212Z,22.4
2018-12-26T00:35:55.527Z,22.4
2018-12-26T00:36:45.348Z,22.4
2018-12-26T00:37:35.951Z,22.4
2018-12-26T00:38:25.710Z,22.4
2018-12-26T00:39:15.763Z,22.4
2018-12-26T00:40:05.829Z,22.4
2018-12-26T00:40:55.600Z,22.5
2018-12-26T00:41:45.668Z,22.4
2018-12-26T00:42:35.987Z,22.5
2018-12-26T00:43:26.037Z,22.5
2018-12-26T00:44:15.824Z,22.5
2018-12-26T00:45:06.151Z,22.4
2018-12-26T00:45:56.206Z,22.5
2018-12-26T00:46:46.257Z,22.5
2018-12-26T00:47:36.324Z,22.5
2018-12-26T00:48:25.839Z,22.5
2018-12-26T00:49:16.442Z,22.5
2018-12-26T00:50:06.551Z,22.5
2018-12-26T00:50:56.549Z,22.5
2018-12-26T00:51:46.337Z,22.5
2018-12-26T00:52:36.670Z,22.5
2018-12-26T00:53:26.454Z,22.5
2018-12-26T00:54:16.781Z,22.5
2018-12-26T00:55:06.566Z,22.5
2018-12-26T00:55:56.889Z,22.5
2018-12-26T00:56:46.954Z,22.5
2018-12-26T00:57:36.744Z,22.5
2018-12-26T00:58:27.067Z,22.5
2018-12-26T00:59:17.126Z,22.5
2018-12-26T01:00:07.179Z,22.5
2018-12-26T01:00:57.236Z,22.5
2018-12-26T01:01:47.131Z,22.5
2018-12-26T01:02:37.601Z,22.5
2018-12-26T01:03:27.411Z,22.5
2018-12-26T01:04:17.193Z,22.5
2018-12-26T01:05:07.528Z,22.5
2018-12-26T01:05:57.305Z,22.5
2018-12-26T01:06:47.638Z,22.5
2018-12-26T01:07:37.671Z,22.5
2018-12-26T01:08:27.750Z,22.5
2018-12-26T01:09:17.530Z,22.5
2018-12-26T01:10:08.116Z,22.5
2018-12-26T01:10:57.923Z,22.5
2018-12-26T01:11:47.980Z,22.5
2018-12-26T01:12:38.035Z,22.5
2018-12-26T01:13:28.145Z,22.5
2018-12-26T01:14:17.873Z,22.5
2018-12-26T01:15:08.189Z,22.5
2018-12-26T01:15:58.000Z,22.5
2018-12-26T01:16:48.144Z,22.5
2018-12-26T01:17:38.367Z,22.5
2018-12-26T01:18:28.439Z,22.5
2018-12-26T01:19:18.274Z,22.5
2018-12-26T01:20:08.555Z,22.5
2018-12-26T01:20:58.327Z,22.5
2018-12-26T01:21:48.656Z,22.5
2018-12-26T01:22:38.727Z,22.5
2018-12-26T01:23:28.774Z,22.5
2018-12-26T01:24:19.080Z,22.5
2018-12-26T01:25:08.887Z,22.5
2018-12-26T01:25:59.001Z,22.5
2018-12-26T01:26:49.004Z,22.5
2018-12-26T01:27:39.062Z,22.5
2018-12-26T01:28:29.114Z,22.6
2018-12-26T01:29:19.253Z,22.5
2018-12-26T01:30:09.227Z,22.5
2018-12-26T01:30:59.007Z,22.5
2018-12-26T01:31:49.076Z,22.5
2018-12-26T01:32:39.126Z,22.5
2018-12-26T01:33:29.464Z,22.5
2018-12-26T01:34:19.514Z,22.5
2018-12-26T01:35:09.031Z,22.5
2018-12-26T01:35:59.627Z,22.5
2018-12-26T01:36:49.406Z,22.5
2018-12-26T01:37:39.733Z,22.5
2018-12-26T01:38:29.872Z,22.5
2018-12-26T01:39:19.864Z,22.5
2018-12-26T01:40:09.909Z,22.5
2018-12-26T01:40:59.701Z,22.5
2018-12-26T01:41:50.004Z,22.5
2018-12-26T01:42:40.074Z,22.5
2018-12-26T01:43:30.143Z,22.5
2018-12-26T01:44:20.009Z,22.5
2018-12-26T01:45:10.256Z,22.5
2018-12-26T01:46:00.306Z,22.5
2018-12-26T01:46:50.368Z,22.5
2018-12-26T01:47:40.144Z,22.5
2018-12-26T01:48:29.939Z,22.5
2018-12-26T01:49:20.545Z,22.5
2018-12-26T01:50:10.316Z,22.5
2018-12-26T01:51:00.375Z,22.5
2018-12-26T01:51:50.445Z,22.5
2018-12-26T01:52:40.504Z,22.5
2018-12-26T01:53:30.825Z,22.5
2018-12-26T01:54:20.883Z,22.5
2018-12-26T01:55:10.675Z,22.5
2018-12-26T01:56:01.005Z,22.5
2018-12-26T01:56:51.059Z,22.5
2018-12-26T01:57:41.107Z,22.5
2018-12-26T01:58:31.160Z,22.5
2018-12-26T01:59:21.229Z,22.5
2018-12-26T02:00:11.012Z,22.5
2018-12-26T02:01:01.335Z,22.5
2018-12-26T02:01:51.122Z,22.5
2018-12-26T02:02:41.702Z,22.5
2018-12-26T02:03:31.235Z,22.5
2018-12-26T02:04:21.557Z,22.5
2018-12-26T02:05:11.867Z,22.5
2018-12-26T02:06:01.690Z,22.5
2018-12-26T02:06:51.729Z,22.5
2018-12-26T02:07:41.785Z,22.5
2018-12-26T02:08:31.847Z,22.5
2018-12-26T02:09:21.912Z,22.5
2018-12-26T02:10:11.967Z,22.5
2018-12-26T02:11:02.022Z,22.5
2018-12-26T02:11:52.064Z,22.4
2018-12-26T02:12:41.852Z,22.5
2018-12-26T02:13:32.191Z,22.5
2018-12-26T02:14:22.244Z,22.5
2018-12-26T02:15:12.124Z,22.4
2018-12-26T02:16:02.359Z,22.4
2018-12-26T02:16:52.144Z,22.5
2018-12-26T02:17:42.206Z,22.5
2018-12-26T02:18:32.541Z,22.5
2018-12-26T02:19:22.318Z,22.5
2018-12-26T02:20:12.639Z,22.5
2018-12-26T02:21:02.714Z,22.5
2018-12-26T02:21:52.769Z,22.5
2018-12-26T02:22:42.901Z,22.5
2018-12-26T02:23:32.865Z,22.5
2018-12-26T02:24:22.928Z,22.5
2018-12-26T02:25:12.981Z,22.5
2018-12-26T02:26:03.036Z,22.5
2018-12-26T02:26:53.091Z,22.5
2018-12-26T02:27:43.156Z,22.5
2018-12-26T02:28:32.928Z,22.4
2018-12-26T02:29:23.260Z,22.5
2018-12-26T02:30:13.339Z,22.4
2018-12-26T02:31:03.636Z,22.5
2018-12-26T02:31:53.443Z,22.5
2018-12-26T02:32:43.500Z,22.4
2018-12-26T02:33:33.545Z,22.5
2018-12-26T02:34:23.678Z,22.4
2018-12-26T02:35:13.671Z,22.5
2018-12-26T02:36:03.887Z,22.5
2018-12-26T02:36:53.781Z,22.5
2018-12-26T02:37:43.866Z,22.5
2018-12-26T02:38:33.650Z,22.5
2018-12-26T02:39:23.964Z,22.5
2018-12-26T02:40:14.013Z,22.5
2018-12-26T02:41:03.796Z,22.4
2018-12-26T02:41:54.117Z,22.4
2018-12-26T02:42:44.182Z,22.4
2018-12-26T02:43:34.244Z,22.4
2018-12-26T02:44:24.302Z,22.5
2018-12-26T02:45:14.097Z,22.5
2018-12-26T02:46:04.412Z,22.4
2018-12-26T02:46:54.192Z,22.4
2018-12-26T02:47:44.258Z,22.4
2018-12-26T02:48:34.593Z,22.4
2018-12-26T02:49:24.644Z,22.5
2018-12-26T02:50:14.425Z,22.4
2018-12-26T02:51:04.760Z,22.5
2018-12-26T02:51:55.078Z,22.5
2018-12-26T02:52:44.957Z,22.5
2018-12-26T02:53:34.921Z,22.5
2018-12-26T02:54:24.716Z,22.5
2018-12-26T02:55:15.031Z,22.4
2018-12-26T02:56:05.102Z,22.4
2018-12-26T02:56:55.456Z,22.4
2018-12-26T02:57:45.239Z,22.4
2018-12-26T02:58:35.006Z,22.5
2018-12-26T02:59:25.329Z,22.4
2018-12-26T03:00:15.101Z,22.4
2018-12-26T03:01:05.424Z,22.4
2018-12-26T03:01:55.820Z,22.4
2018-12-26T03:02:45.561Z,22.5
2018-12-26T03:03:35.634Z,22.4
2018-12-26T03:04:25.668Z,22.4
2018-12-26T03:05:15.982Z,22.4
2018-12-26T03:06:05.794Z,22.4
2018-12-26T03:06:55.802Z,22.4
2018-12-26T03:07:45.881Z,22.4
2018-12-26T03:08:35.951Z,22.4
2018-12-26T03:09:25.746Z,22.4
2018-12-26T03:10:15.783Z,22.4
2018-12-26T03:11:05.853Z,22.4
2018-12-26T03:11:56.173Z,22.4
2018-12-26T03:12:46.224Z,22.4
2018-12-26T03:13:36.019Z,22.4
2018-12-26T03:14:26.388Z,22.4
2018-12-26T03:15:16.410Z,22.4
2018-12-26T03:16:06.474Z,22.4
2018-12-26T03:16:56.253Z,22.4
2018-12-26T03:17:46.597Z,22.4
2018-12-26T03:18:36.875Z,22.4
2018-12-26T03:19:26.951Z,22.4
2018-12-26T03:20:16.505Z,22.4
2018-12-26T03:21:06.817Z,22.4
2018-12-26T03:21:56.878Z,22.4
2018-12-26T03:22:46.913Z,22.4
2018-12-26T03:23:36.979Z,22.4
2018-12-26T03:24:27.039Z,22.4
2018-12-26T03:25:16.839Z,22.4
2018-12-26T03:26:07.162Z,22.4
2018-12-26T03:26:57.752Z,22.4
2018-12-26T03:27:47.255Z,22.4
2018-12-26T03:28:37.037Z,22.4
2018-12-26T03:29:27.384Z,22.4
2018-12-26T03:30:17.219Z,22.4
2018-12-26T03:31:07.562Z,22.4
2018-12-26T03:31:57.617Z,22.4
2018-12-26T03:32:47.347Z,22.4
2018-12-26T03:33:37.380Z,22.4
2018-12-26T03:34:27.449Z,22.4
2018-12-26T03:35:17.510Z,22.4
2018-12-26T03:36:07.852Z,22.4
2018-12-26T03:36:57.899Z,22.4
2018-12-26T03:37:47.971Z,22.4
2018-12-26T03:38:37.731Z,22.4
2018-12-26T03:39:27.809Z,22.4
2018-12-26T03:40:18.113Z,22.4
2018-12-26T03:41:08.483Z,22.4
2018-12-26T03:41:58.235Z,22.4
2018-12-26T03:42:48.028Z,22.4
2018-12-26T03:43:38.338Z,22.4
2018-12-26T03:44:28.133Z,22.4
2018-12-26T03:45:18.454Z,22.4
2018-12-26T03:46:07.986Z,22.4
2018-12-26T03:46:58.578Z,22.4
2018-12-26T03:47:48.898Z,22.4
2018-12-26T03:48:38.686Z,22.4
2018-12-26T03:49:28.476Z,22.4
2018-12-26T03:50:18.803Z,22.4
2018-12-26T03:51:08.858Z,22.4
2018-12-26T03:51:58.921Z,22.4
2018-12-26T03:52:48.969Z,22.4
2018-12-26T03:53:39.025Z,22.4
2018-12-26T03:54:29.085Z,22.4
2018-12-26T03:55:18.883Z,22.4
2018-12-26T03:56:08.937Z,22.4
2018-12-26T03:57:07.307Z,22.4
2018-12-26T03:57:48.775Z,22.4
2018-12-26T03:58:39.095Z,22.4
2018-12-26T03:59:29.431Z,22.4
2018-12-26T04:00:19.518Z,22.4
2018-12-26T04:01:09.563Z,22.4
2018-12-26T04:01:59.619Z,22.4
2018-12-26T04:02:49.379Z,22.4
2018-12-26T04:03:39.718Z,22.4
2018-12-26T04:04:29.500Z,22.4
2018-12-26T04:05:19.828Z,22.4
2018-12-26T04:06:09.623Z,22.4
2018-12-26T04:06:59.952Z,22.4
2018-12-26T04:07:50.008Z,22.4
2018-12-26T04:08:40.066Z,22.3
2018-12-26T04:09:30.105Z,22.4
2018-12-26T04:10:19.897Z,22.4
2018-12-26T04:11:10.497Z,22.3
2018-12-26T04:12:00.288Z,22.3
2018-12-26T04:12:50.677Z,22.4
2018-12-26T04:13:40.130Z,22.3
2018-12-26T04:14:30.182Z,22.4
2018-12-26T04:15:20.507Z,22.3
2018-12-26T04:16:10.627Z,22.3
2018-12-26T04:17:00.617Z,22.3
2018-12-26T04:17:50.681Z,22.3
2018-12-26T04:18:40.730Z,22.3
2018-12-26T04:19:30.787Z,22.3
2018-12-26T04:20:20.874Z,22.3
2018-12-26T04:21:10.904Z,22.3
2018-12-26T04:22:00.964Z,22.3
2018-12-26T04:22:50.470Z,22.3
2018-12-26T04:23:40.801Z,22.3
2018-12-26T04:24:31.162Z,22.3
2018-12-26T04:25:21.203Z,22.3
2018-12-26T04:26:11.254Z,22.3
2018-12-26T04:27:01.323Z,22.3
2018-12-26T04:27:51.378Z,22.3
2018-12-26T04:28:41.444Z,22.3
2018-12-26T04:29:31.476Z,22.3
2018-12-26T04:30:21.533Z,22.3
2018-12-26T04:31:11.598Z,22.3
2018-12-26T04:32:01.647Z,22.3
2018-12-26T04:32:51.703Z,22.3
2018-12-26T04:33:41.768Z,22.3
2018-12-26T04:34:31.826Z,22.3
2018-12-26T04:35:21.881Z,22.3
2018-12-26T04:36:11.663Z,22.3
2018-12-26T04:37:01.765Z,22.3
2018-12-26T04:37:51.785Z,22.3
2018-12-26T04:38:41.838Z,22.3
2018-12-26T04:39:32.160Z,22.3
2018-12-26T04:40:21.948Z,22.3
2018-12-26T04:41:12.275Z,22.3
2018-12-26T04:42:02.328Z,22.3
2018-12-26T04:42:52.393Z,22.3
2018-12-26T04:43:42.438Z,22.3
2018-12-26T04:44:32.600Z,22.3
2018-12-26T05:01:54.809Z,22.3
2018-12-26T05:02:44.059Z,22.3
2018-12-26T05:03:34.670Z,22.3
2018-12-26T05:04:24.720Z,22.3
2018-12-26T05:05:14.760Z,22.3
2018-12-26T05:06:04.821Z,22.3
2018-12-26T05:06:54.927Z,22.3
2018-12-26T05:07:44.921Z,22.3
2018-12-26T05:08:34.988Z,22.3
2018-12-26T05:09:25.052Z,22.3
2018-12-26T05:10:15.094Z,22.3
2018-12-26T05:11:05.154Z,22.3
2018-12-26T05:11:54.941Z,22.3
2018-12-26T05:12:45.532Z,22.3
2018-12-26T05:13:35.316Z,22.3
2018-12-26T05:14:25.121Z,22.3
2018-12-26T05:15:15.436Z,22.3
2018-12-26T05:16:05.501Z,22.3
2018-12-26T05:16:55.646Z,22.3
2018-12-26T05:17:45.337Z,22.3
2018-12-26T05:18:35.664Z,22.3
2018-12-26T05:19:25.721Z,22.3
2018-12-26T05:20:15.777Z,22.3
2018-12-26T05:21:05.843Z,22.3
2018-12-26T05:21:55.628Z,22.3
2018-12-26T05:22:46.221Z,22.3
2018-12-26T05:23:36.009Z,22.3
2018-12-26T05:24:26.108Z,22.3
2018-12-26T05:25:15.840Z,22.3
2018-12-26T05:26:06.178Z,22.3
2018-12-26T05:26:56.243Z,22.3
2018-12-26T05:27:46.653Z,22.3
2018-12-26T05:28:36.353Z,22.3
2018-12-26T05:29:26.494Z,22.2
2018-12-26T05:30:16.187Z,22.3
2018-12-26T05:31:06.245Z,22.3
2018-12-26T05:31:56.306Z,22.3
2018-12-26T05:32:46.671Z,22.3
2018-12-26T05:33:36.684Z,22.2
2018-12-26T05:34:26.749Z,22.3
2018-12-26T05:35:16.654Z,22.3
2018-12-26T05:36:06.854Z,22.3
2018-12-26T05:36:57.166Z,22.2
2018-12-26T05:37:46.979Z,22.3
2018-12-26T05:38:37.039Z,22.3
2018-12-26T05:39:27.081Z,22.2
2018-12-26T05:40:17.168Z,22.3
2018-12-26T05:41:07.201Z,22.2
2018-12-26T05:41:57.266Z,22.3
2018-12-26T05:42:47.310Z,22.3
2018-12-26T05:43:37.371Z,22.2
2018-12-26T05:44:27.431Z,22.2
2018-12-26T05:45:17.214Z,22.2
2018-12-26T05:46:07.274Z,22.3
2018-12-26T05:46:57.598Z,22.3
2018-12-26T05:47:47.376Z,22.2
2018-12-26T05:48:37.711Z,22.2
2018-12-26T05:49:27.767Z,22.2
2018-12-26T05:50:17.816Z,22.2
2018-12-26T05:51:07.606Z,22.2
2018-12-26T05:51:57.936Z,22.2
2018-12-26T05:52:47.984Z,22.2
2018-12-26T05:53:38.101Z,22.3
2018-12-26T05:54:28.101Z,22.2
2018-12-26T05:55:17.893Z,22.2
2018-12-26T05:56:08.221Z,22.2
2018-12-26T05:56:58.272Z,22.2
2018-12-26T05:57:48.331Z,22.2
2018-12-26T05:58:38.110Z,22.2
2018-12-26T05:59:27.903Z,22.2
2018-12-26T06:00:17.945Z,22.2
2018-12-26T06:01:08.283Z,22.2
2018-12-26T06:01:58.615Z,22.2
2018-12-26T06:02:48.650Z,22.2
2018-12-26T06:03:38.450Z,22.2
2018-12-26T06:04:29.032Z,22.2
2018-12-26T06:05:18.391Z,22.2
2018-12-26T06:06:08.617Z,22.2
2018-12-26T06:06:58.952Z,22.2
2018-12-26T06:07:49.028Z,22.2
2018-12-26T06:08:39.081Z,22.2
2018-12-26T06:09:29.132Z,22.2
2018-12-26T06:10:18.913Z,22.2
2018-12-26T06:11:09.244Z,22.2
2018-12-26T06:11:59.299Z,22.2
2018-12-26T06:12:49.077Z,22.2
2018-12-26T06:13:39.410Z,22.2
2018-12-26T06:14:29.182Z,22.2
2018-12-26T06:15:19.527Z,22.2
2018-12-26T06:16:09.292Z,22.2
2018-12-26T06:16:59.377Z,22.2
2018-12-26T06:17:49.740Z,22.2
2018-12-26T06:18:39.740Z,22.2
2018-12-26T06:19:29.526Z,22.2
2018-12-26T06:20:19.600Z,22.2
2018-12-26T06:21:09.652Z,22.2
2018-12-26T06:21:59.975Z,22.2
2018-12-26T06:22:50.030Z,22.2
2018-12-26T06:23:40.089Z,22.2
2018-12-26T06:24:30.144Z,22.2
2018-12-26T06:25:20.205Z,22.1
2018-12-26T06:26:10.372Z,22.2
2018-12-26T06:27:00.045Z,22.2
2018-12-26T06:27:52.335Z,22.1
2018-12-26T06:28:40.422Z,22.2
2018-12-26T06:29:30.208Z,22.1
2018-12-26T06:30:20.846Z,22.2
2018-12-26T06:31:10.597Z,22.2
2018-12-26T06:32:00.107Z,22.1
2018-12-26T06:32:50.439Z,22.1
2018-12-26T06:33:40.737Z,22.1
2018-12-26T06:34:30.821Z,22.2
2018-12-26T06:35:21.177Z,22.2
2018-12-26T06:36:10.931Z,22.1
2018-12-26T06:37:00.709Z,22.2
2018-12-26T06:37:51.171Z,22.2
2018-12-26T06:38:41.361Z,22.2
2018-12-26T06:39:31.161Z,22.1
2018-12-26T06:40:21.226Z,22.2
2018-12-26T06:41:11.274Z,22.2
2018-12-26T06:42:01.334Z,22.2
2018-12-26T06:42:51.382Z,22.2
2018-12-26T06:43:41.176Z,22.2
2018-12-26T06:44:33.649Z,22.2
2018-12-26T06:45:21.558Z,22.3
2018-12-26T06:46:11.611Z,22.3
2018-12-26T06:47:01.669Z,22.3
2018-12-26T06:47:51.726Z,22.3
2018-12-26T06:48:41.513Z,22.3
2018-12-26T06:49:31.556Z,22.3
2018-12-26T06:50:21.907Z,22.3
2018-12-26T06:51:11.948Z,22.3
2018-12-26T06:52:02.003Z,22.3
2018-12-26T06:52:52.063Z,22.3
2018-12-26T06:53:42.136Z,22.3
2018-12-26T06:54:31.925Z,22.3
2018-12-26T06:55:22.236Z,22.3
2018-12-26T06:56:12.295Z,22.3
2018-12-26T06:57:02.411Z,22.3
2018-12-26T06:58:01.055Z,22.3
2018-12-26T06:58:42.460Z,22.3
2018-12-26T06:59:32.520Z,22.3
2018-12-26T07:00:22.307Z,22.3
2018-12-26T07:01:12.635Z,22.3
2018-12-26T07:02:02.685Z,22.3
2018-12-26T07:02:52.740Z,22.3
2018-12-26T07:03:42.528Z,22.3
2018-12-26T07:04:32.860Z,22.3
2018-12-26T07:05:22.925Z,22.3
2018-12-26T07:06:12.710Z,22.3
2018-12-26T07:07:03.030Z,22.3
2018-12-26T07:07:53.082Z,22.3
2018-12-26T07:08:43.165Z,22.3
2018-12-26T07:09:33.207Z,22.3
2018-12-26T07:10:23.001Z,22.3
2018-12-26T07:11:13.329Z,22.3
2018-12-26T07:12:03.100Z,22.3
2018-12-26T07:12:53.433Z,22.3
2018-12-26T07:13:43.207Z,22.3
2018-12-26T07:14:33.625Z,22.3
2018-12-26T07:15:23.163Z,22.3
2018-12-26T07:16:15.480Z,22.3
2018-12-26T07:17:03.969Z,22.3
2018-12-26T07:17:53.772Z,22.3
2018-12-26T07:18:43.562Z,22.3
2018-12-26T07:19:33.356Z,22.3
2018-12-26T07:20:24.247Z,22.3
2018-12-26T07:21:13.726Z,22.3
2018-12-26T07:22:04.069Z,22.3
2018-12-26T07:22:54.119Z,22.3
2018-12-26T07:23:43.916Z,22.3
2018-12-26T07:24:34.236Z,22.3
2018-12-26T07:25:24.007Z,22.3
2018-12-26T07:26:14.074Z,22.3
2018-12-26T07:27:04.130Z,22.3
2018-12-26T07:27:54.456Z,22.3
2018-12-26T07:28:44.518Z,22.3
2018-12-26T07:29:34.306Z,22.3
2018-12-26T07:30:24.631Z,22.3
2018-12-26T07:31:14.688Z,22.3
2018-12-26T07:32:04.746Z,22.3
2018-12-26T07:32:54.809Z,22.3
2018-12-26T07:33:44.596Z,22.3
2018-12-26T07:34:43.164Z,22.3
2018-12-26T07:35:24.703Z,22.3
2018-12-26T07:36:15.041Z,22.3
2018-12-26T07:37:05.088Z,22.3
2018-12-26T07:37:55.145Z,22.3
2018-12-26T07:38:44.943Z,22.3
2018-12-26T07:39:35.262Z,22.3
2018-12-26T07:40:25.050Z,22.3
2018-12-26T07:41:15.115Z,22.3
2018-12-26T07:42:05.438Z,22.4
2018-12-26T07:42:55.490Z,22.3
2018-12-26T07:43:45.550Z,22.3
2018-12-26T07:44:35.693Z,22.3
2018-12-26T07:45:25.403Z,22.3
2018-12-26T07:46:15.818Z,22.3
2018-12-26T07:47:05.781Z,22.3
2018-12-26T07:47:55.846Z,22.3
2018-12-26T07:48:45.895Z,22.3
2018-12-26T07:49:35.955Z,22.4
2018-12-26T07:50:26.010Z,22.3
2018-12-26T07:51:15.785Z,22.3
2018-12-26T07:52:06.120Z,22.3
2018-12-26T07:52:55.897Z,22.3
2018-12-26T07:53:45.692Z,22.3
2018-12-26T07:54:36.295Z,22.3
2018-12-26T07:55:26.350Z,22.3
2018-12-26T07:56:16.411Z,22.3
2018-12-26T07:57:06.459Z,22.3
2018-12-26T07:57:56.247Z,22.3
2018-12-26T07:58:46.038Z,22.3
2018-12-26T07:59:38.845Z,22.3
2018-12-26T08:00:26.692Z,22.3
2018-12-26T08:01:16.764Z,22.3
2018-12-26T08:02:06.529Z,22.3
2018-12-26T08:02:56.869Z,22.3
2018-12-26T08:03:46.650Z,22.3
2018-12-26T08:04:36.706Z,22.3
2018-12-26T08:05:26.767Z,22.3
2018-12-26T08:06:17.094Z,22.3
2018-12-26T08:07:07.178Z,22.3
2018-12-26T08:07:57.211Z,22.3
2018-12-26T08:08:47.274Z,22.3
2018-12-26T08:09:37.045Z,22.3
2018-12-26T08:10:27.102Z,22.3
2018-12-26T08:11:17.442Z,22.3
2018-12-26T08:12:07.489Z,22.3
2018-12-26T08:12:57.559Z,22.3
2018-12-26T08:13:47.341Z,22.3
2018-12-26T08:14:37.123Z,22.3
2018-12-26T08:15:27.721Z,22.3
2018-12-26T08:16:17.511Z,22.3
2018-12-26T08:17:07.983Z,22.3
2018-12-26T08:17:57.626Z,22.4
2018-12-26T08:18:47.689Z,22.3
2018-12-26T08:19:38.010Z,22.3
2018-12-26T08:20:27.803Z,22.3
2018-12-26T08:21:18.127Z,22.3
2018-12-26T08:22:08.178Z,22.3
2018-12-26T08:22:58.250Z,22.3
2018-12-26T08:23:48.021Z,22.4
2018-12-26T08:24:38.348Z,22.4
2018-12-26T08:25:28.525Z,22.3
2018-12-26T08:26:18.193Z,22.4
2018-12-26T08:27:08.555Z,22.3
2018-12-26T08:27:58.585Z,22.3
2018-12-26T08:28:48.110Z,22.3
2018-12-26T08:29:38.418Z,22.3
2018-12-26T08:30:28.755Z,22.3
2018-12-26T08:31:18.814Z,22.3
2018-12-26T08:32:08.990Z,22.3
2018-12-26T08:32:58.926Z,22.4
2018-12-26T08:33:48.705Z,22.3
2018-12-26T08:34:39.043Z,22.4
2018-12-26T08:35:29.090Z,22.4
2018-12-26T08:36:19.163Z,22.4
2018-12-26T08:37:08.919Z,22.4
2018-12-26T08:37:58.999Z,22.4
2018-12-26T08:38:49.339Z,22.4
2018-12-26T08:39:39.384Z,22.3
2018-12-26T08:40:29.435Z,22.3
2018-12-26T08:41:19.734Z,22.3
2018-12-26T08:42:09.557Z,22.4
2018-12-26T08:42:59.342Z,22.3
2018-12-26T08:43:49.666Z,22.4
2018-12-26T08:44:39.454Z,22.4
2018-12-26T08:45:29.514Z,22.4
2018-12-26T08:46:19.876Z,22.4
2018-12-26T08:47:09.902Z,22.4
2018-12-26T08:47:59.953Z,22.3
2018-12-26T08:48:50.009Z,22.2
2018-12-26T08:49:40.097Z,22.1
2018-12-26T08:50:29.848Z,22
2018-12-26T08:51:20.181Z,21.9
2018-12-26T08:52:10.591Z,21.9
2018-12-26T08:53:00.022Z,21.9
2018-12-26T08:53:50.606Z,21.9
2018-12-26T08:54:40.415Z,21.9
2018-12-26T08:55:30.197Z,21.9
2018-12-26T08:56:20.529Z,21.9
2018-12-26T08:57:10.617Z,21.9
2018-12-26T08:58:00.383Z,22
2018-12-26T08:58:50.678Z,22
2018-12-26T08:59:40.208Z,22
2018-12-26T09:00:30.815Z,22
2018-12-26T09:16:25.197Z,22.1
2018-12-26T09:17:14.997Z,22.1
2018-12-26T09:18:04.524Z,22.1
2018-12-26T09:18:54.866Z,22.1
2018-12-26T09:19:44.916Z,22.1
2018-12-26T09:20:35.069Z,22.1
2018-12-26T09:21:24.753Z,22.1
2018-12-26T09:22:15.062Z,22.1
2018-12-26T09:23:04.859Z,22.1
2018-12-26T09:23:55.041Z,22.1
2018-12-26T09:24:44.715Z,22.1
2018-12-26T09:25:35.311Z,22.1
2018-12-26T09:26:25.091Z,22.1
2018-12-26T09:27:15.413Z,22.1
2018-12-26T09:28:05.486Z,22.1
2018-12-26T09:28:55.535Z,22.1
2018-12-26T09:29:45.601Z,22.1
2018-12-26T09:30:35.651Z,22.1
2018-12-26T09:31:25.709Z,22.1
2018-12-26T09:32:15.488Z,22.1
2018-12-26T09:33:05.654Z,22.1
2018-12-26T09:33:55.877Z,22.1
2018-12-26T09:34:45.665Z,22.1
2018-12-26T09:35:35.990Z,22.1
2018-12-26T09:36:26.053Z,22.1
2018-12-26T09:37:15.838Z,22.1
2018-12-26T09:38:06.165Z,22.1
2018-12-26T09:38:56.217Z,22.1
2018-12-26T09:39:46.017Z,22.1
2018-12-26T09:40:36.333Z,22.1
2018-12-26T09:41:26.385Z,22.1
2018-12-26T09:42:16.440Z,22.1
2018-12-26T09:43:06.509Z,22.1
2018-12-26T09:43:56.562Z,22.1
2018-12-26T09:44:55.092Z,22.1
2018-12-26T09:45:36.402Z,22.1
2018-12-26T09:46:26.470Z,22.1
2018-12-26T09:47:16.787Z,22.1
2018-12-26T09:48:06.849Z,22.1
2018-12-26T09:48:56.647Z,22.1
2018-12-26T09:49:46.702Z,22.1
2018-12-26T09:50:37.026Z,22.1
2018-12-26T09:51:27.090Z,22.1
2018-12-26T09:52:17.197Z,22.1
2018-12-26T09:53:07.207Z,22.1
2018-12-26T09:53:57.066Z,22.1
2018-12-26T09:54:49.219Z,22.1
2018-12-26T09:55:37.096Z,22.1
2018-12-26T09:56:27.429Z,22.1
2018-12-26T09:57:17.570Z,22.1
2018-12-26T09:58:07.531Z,22.1
2018-12-26T09:58:57.593Z,22.1
2018-12-26T09:59:47.391Z,22.1
2018-12-26T10:00:37.813Z,22.1
2018-12-26T10:01:27.796Z,22.1
2018-12-26T10:02:17.819Z,22.1
2018-12-26T10:03:07.890Z,22.1
2018-12-26T10:03:57.686Z,22.1
2018-12-26T10:04:48.003Z,22.1
2018-12-26T10:05:38.065Z,22.1
2018-12-26T10:06:28.126Z,22.1
2018-12-26T10:07:17.905Z,22.1
2018-12-26T10:08:08.234Z,22.1
2018-12-26T10:08:58.347Z,22.1
2018-12-26T10:09:48.069Z,22.1
2018-12-26T10:10:38.403Z,22.1
2018-12-26T10:11:28.464Z,22.1
2018-12-26T10:12:18.525Z,22.1
2018-12-26T10:13:08.575Z,22.1
2018-12-26T10:13:58.640Z,22.1
2018-12-26T10:14:48.685Z,22.1
2018-12-26T10:15:38.760Z,22.1
2018-12-26T10:16:28.808Z,22.1
2018-12-26T10:17:18.885Z,22.1
2018-12-26T10:18:08.637Z,22.1
2018-12-26T10:18:58.987Z,22.1
2018-12-26T10:19:51.244Z,22.1
2018-12-26T10:20:39.082Z,22.1
2018-12-26T10:21:29.146Z,22.1
2018-12-26T10:22:19.250Z,22.1
2018-12-26T10:23:08.989Z,22.1
2018-12-26T10:23:59.308Z,22.1
2018-12-26T10:24:49.089Z,22.1
2018-12-26T10:25:39.422Z,22
2018-12-26T10:26:29.217Z,22
2018-12-26T10:27:19.546Z,22.1
2018-12-26T10:28:09.054Z,22
2018-12-26T10:29:02.090Z,22
2018-12-26T10:29:49.720Z,22.1
2018-12-26T10:30:39.863Z,22.1
2018-12-26T10:31:29.837Z,22
2018-12-26T10:32:19.622Z,22.1
2018-12-26T10:33:09.687Z,22
2018-12-26T10:33:59.999Z,22
2018-12-26T10:34:50.056Z,22.1
2018-12-26T10:35:39.846Z,22
2018-12-26T10:36:30.179Z,22
2018-12-26T10:37:20.241Z,22
2018-12-26T10:38:10.281Z,22
2018-12-26T10:39:00.339Z,22
2018-12-26T10:39:50.398Z,22
2018-12-26T10:40:40.468Z,22
2018-12-26T10:41:30.243Z,22
2018-12-26T10:42:20.029Z,22
2018-12-26T10:43:10.628Z,22
2018-12-26T10:44:00.694Z,22
2018-12-26T10:44:50.743Z,22
2018-12-26T10:45:40.805Z,22
2018-12-26T10:46:30.666Z,22
2018-12-26T10:47:20.923Z,22
2018-12-26T10:48:10.980Z,22
2018-12-26T10:49:01.030Z,22
2018-12-26T10:49:50.818Z,22
2018-12-26T10:50:40.610Z,22
2018-12-26T10:51:31.215Z,22
2018-12-26T10:52:20.992Z,22
2018-12-26T10:53:11.317Z,22
2018-12-26T10:54:01.383Z,22
2018-12-26T10:54:51.455Z,22
2018-12-26T10:55:41.216Z,22
2018-12-26T10:56:31.270Z,22
2018-12-26T10:57:21.610Z,22
2018-12-26T10:58:11.712Z,22
2018-12-26T10:59:10.578Z,22
2018-12-26T10:59:51.769Z,22
2018-12-26T11:00:41.829Z,21.9
2018-12-26T11:01:31.899Z,22
2018-12-26T11:02:21.672Z,22
2018-12-26T11:03:12.259Z,21.9
2018-12-26T11:04:02.065Z,21.9
2018-12-26T11:04:51.852Z,21.9
2018-12-26T11:05:42.182Z,21.9
2018-12-26T11:06:32.241Z,21.9
2018-12-26T11:07:22.294Z,21.9
2018-12-26T11:08:12.357Z,22
2018-12-26T11:09:02.419Z,21.9
2018-12-26T11:09:52.467Z,22
2018-12-26T11:10:42.524Z,21.9
2018-12-26T11:11:32.579Z,21.9
2018-12-26T11:12:22.699Z,22
2018-12-26T11:13:12.431Z,21.9
2018-12-26T11:14:02.479Z,21.9
2018-12-26T11:14:52.818Z,21.9
2018-12-26T11:15:42.868Z,21.9
2018-12-26T11:16:32.924Z,21.9
2018-12-26T11:17:22.701Z,21.9
2018-12-26T11:18:13.044Z,21.9
2018-12-26T11:19:03.106Z,21.9
2018-12-26T11:19:53.161Z,21.9
2018-12-26T11:20:42.940Z,21.9
2018-12-26T11:21:33.278Z,21.9
2018-12-26T11:22:23.338Z,21.9
2018-12-26T11:23:13.383Z,21.9
2018-12-26T11:24:03.443Z,21.9
2018-12-26T11:24:53.493Z,21.9
2018-12-26T11:25:43.281Z,21.9
2018-12-26T11:26:33.611Z,21.9
2018-12-26T11:27:23.395Z,21.9
2018-12-26T11:28:13.833Z,21.9
2018-12-26T11:29:03.793Z,21.9
2018-12-26T11:29:53.838Z,21.9
2018-12-26T11:30:43.906Z,21.9
2018-12-26T11:31:33.955Z,21.9
2018-12-26T11:32:23.743Z,21.9
2018-12-26T11:33:13.881Z,21.9
2018-12-26T11:34:03.855Z,21.9
2018-12-26T11:34:54.185Z,21.9
2018-12-26T11:35:44.235Z,21.9
2018-12-26T11:36:34.303Z,21.9
2018-12-26T11:37:24.183Z,21.9
2018-12-26T11:38:14.406Z,21.9
2018-12-26T11:39:04.464Z,21.9
2018-12-26T11:39:54.528Z,21.9
2018-12-26T11:40:44.833Z,21.9
2018-12-26T11:41:34.640Z,21.9
2018-12-26T11:42:24.733Z,21.9
2018-12-26T11:43:14.753Z,21.9
2018-12-26T11:44:04.900Z,21.9
2018-12-26T11:44:54.870Z,21.9
2018-12-26T11:45:44.710Z,21.9
2018-12-26T11:46:34.988Z,21.9
2018-12-26T11:47:25.044Z,21.9
2018-12-26T11:48:14.832Z,21.9
2018-12-26T11:49:04.888Z,21.9
2018-12-26T11:49:55.225Z,21.9
2018-12-26T11:50:45.000Z,21.9
2018-12-26T11:51:35.320Z,21.9
2018-12-26T11:52:25.395Z,21.9
2018-12-26T11:53:14.892Z,21.9
2018-12-26T11:54:05.494Z,21.9
2018-12-26T11:54:55.565Z,21.9
2018-12-26T11:55:45.623Z,21.9
2018-12-26T11:56:35.674Z,21.9
2018-12-26T11:57:25.737Z,21.9